createdAt,value
2018-08-28T00:00:26.858Z,18.94
2018-08-28T00:01:26.872Z,18.98
2018-08-28T00:02:26.871Z,18.99
2018-08-28T00:03:26.866Z,18.98
2018-08-28T00:04:26.900Z,19.00
2018-08-28T00:05:26.884Z,18.95
2018-08-28T00:06:26.888Z,18.95
2018-08-28T00:07:26.901Z,18.92
2018-08-28T00:08:26.917Z,18.99
2018-08-28T00:09:26.946Z,18.98
2018-08-28T00:10:26.931Z,18.94
2018-08-28T00:11:26.949Z,18.91
2018-08-28T00:12:26.961Z,18.88
2018-08-28T00:13:26.960Z,18.94
2018-08-28T00:14:26.982Z,18.90
2018-08-28T00:15:26.962Z,18.92
2018-08-28T00:16:26.963Z,18.94
2018-08-28T00:17:26.983Z,18.91
2018-08-28T00:18:26.991Z,18.91
2018-08-28T00:19:27.011Z,18.88
2018-08-28T00:20:27.000Z,18.91
2018-08-28T00:21:26.995Z,18.88
2018-08-28T00:22:27.002Z,18.92
2018-08-28T00:23:27.003Z,18.85
2018-08-28T00:24:27.052Z,18.92
2018-08-28T00:25:27.019Z,18.91
2018-08-28T00:26:27.022Z,18.82
2018-08-28T00:27:27.034Z,18.84
2018-08-28T00:28:27.039Z,18.85
2018-08-28T00:29:27.044Z,18.85
2018-08-28T00:30:27.084Z,18.81
2018-08-28T00:31:27.067Z,18.85
2018-08-28T00:32:27.085Z,18.84
2018-08-28T00:33:27.092Z,18.81
2018-08-28T00:34:27.098Z,18.80
2018-08-28T00:35:27.132Z,18.76
2018-08-28T00:36:27.119Z,18.81
2018-08-28T00:37:27.125Z,18.80
2018-08-28T00:38:27.136Z,18.75
2018-08-28T00:39:27.145Z,18.75
2018-08-28T00:40:27.169Z,18.75
2018-08-28T00:41:27.147Z,18.73
2018-08-28T00:42:27.154Z,18.66
2018-08-28T00:43:27.160Z,18.73
2018-08-28T00:44:27.174Z,18.67
2018-08-28T00:45:27.202Z,18.69
2018-08-28T00:46:27.181Z,18.60
2018-08-28T00:47:27.185Z,18.57
2018-08-28T00:48:27.192Z,18.62
2018-08-28T00:49:27.202Z,18.67
2018-08-28T00:50:27.237Z,18.65
2018-08-28T00:51:27.220Z,18.65
2018-08-28T00:52:27.271Z,18.67
2018-08-28T00:53:27.244Z,18.54
2018-08-28T00:54:27.257Z,18.69
2018-08-28T00:55:27.295Z,18.58
2018-08-28T00:56:27.282Z,18.63
2018-08-28T00:57:27.328Z,18.55
2018-08-28T00:58:27.307Z,18.55
2018-08-28T00:59:27.324Z,18.57
2018-08-28T01:00:27.358Z,18.52
2018-08-28T01:01:27.339Z,18.52
2018-08-28T01:02:27.351Z,18.51
2018-08-28T01:03:27.373Z,18.50
2018-08-28T01:04:27.382Z,18.52
2018-08-28T01:05:27.421Z,18.48
2018-08-28T01:06:27.400Z,18.54
2018-08-28T01:07:27.412Z,18.48
2018-08-28T01:08:27.425Z,18.44
2018-08-28T01:09:27.449Z,18.42
2018-08-28T01:10:27.468Z,18.35
2018-08-28T01:11:27.471Z,18.52
2018-08-28T01:12:27.481Z,18.45
2018-08-28T01:13:27.498Z,18.37
2018-08-28T01:14:27.544Z,18.39
2018-08-28T01:15:27.541Z,18.33
2018-08-28T01:16:27.523Z,18.36
2018-08-28T01:17:27.546Z,18.33
2018-08-28T01:18:27.554Z,18.35
2018-08-28T01:19:27.570Z,18.32
2018-08-28T01:20:27.619Z,18.20
2018-08-28T01:21:27.608Z,18.29
2018-08-28T01:22:27.619Z,18.25
2018-08-28T01:23:27.663Z,18.30
2018-08-28T01:24:27.646Z,18.21
2018-08-28T01:25:27.709Z,18.25
2018-08-28T01:26:27.696Z,18.20
2018-08-28T01:27:27.701Z,18.17
2018-08-28T01:28:27.731Z,18.21
2018-08-28T01:29:27.745Z,18.23
2018-08-28T01:30:27.779Z,18.14
2018-08-28T01:31:27.760Z,18.11
2018-08-28T01:32:27.775Z,18.17
2018-08-28T01:33:27.796Z,18.11
2018-08-28T01:34:27.809Z,18.15
2018-08-28T01:35:27.878Z,18.12
2018-08-28T01:36:27.856Z,18.15
2018-08-28T01:37:27.872Z,18.03
2018-08-28T01:38:27.891Z,18.03
2018-08-28T01:39:27.913Z,17.96
2018-08-28T01:40:27.968Z,17.97
2018-08-28T01:41:27.941Z,18.02
2018-08-28T01:42:27.963Z,17.97
2018-08-28T01:43:27.979Z,18.00
2018-08-28T01:44:27.989Z,17.99
2018-08-28T01:45:28.035Z,17.97
2018-08-28T01:46:28.051Z,17.99
2018-08-28T01:47:28.063Z,18.02
2018-08-28T01:48:28.065Z,17.86
2018-08-28T01:49:28.085Z,17.95
2018-08-28T01:50:28.096Z,17.92
2018-08-28T01:51:28.139Z,17.87
2018-08-28T01:52:28.130Z,17.89
2018-08-28T01:53:28.154Z,17.95
2018-08-28T01:54:28.166Z,17.95
2018-08-28T01:55:28.181Z,17.89
2018-08-28T01:56:28.232Z,17.87
2018-08-28T01:57:28.232Z,17.81
2018-08-28T01:58:28.238Z,17.86
2018-08-28T01:59:28.261Z,17.87
2018-08-28T02:00:28.286Z,17.75
2018-08-28T02:01:28.335Z,17.79
2018-08-28T02:02:28.312Z,17.84
2018-08-28T02:03:28.334Z,17.79
2018-08-28T02:04:28.355Z,17.70
2018-08-28T02:05:28.385Z,17.84
2018-08-28T02:06:28.495Z,17.70
2018-08-28T02:07:28.431Z,17.79
2018-08-28T02:08:28.453Z,17.68
2018-08-28T02:09:28.507Z,17.63
2018-08-28T02:10:28.506Z,17.70
2018-08-28T02:11:28.566Z,17.66
2018-08-28T02:12:28.572Z,17.68
2018-08-28T02:13:28.591Z,17.63
2018-08-28T02:14:28.642Z,17.63
2018-08-28T02:15:28.659Z,17.62
2018-08-28T02:16:28.701Z,17.64
2018-08-28T02:17:28.697Z,17.54
2018-08-28T02:18:28.720Z,17.58
2018-08-28T02:19:28.745Z,17.55
2018-08-28T02:20:28.788Z,17.62
2018-08-28T02:21:28.816Z,17.63
2018-08-28T02:22:28.825Z,17.52
2018-08-28T02:23:28.852Z,17.58
2018-08-28T02:24:28.870Z,17.55
2018-08-28T02:25:28.898Z,17.56
2018-08-28T02:26:28.947Z,17.48
2018-08-28T02:27:28.957Z,17.48
2018-08-28T02:28:28.974Z,17.55
2018-08-28T02:29:29.001Z,17.46
2018-08-28T02:30:29.027Z,17.49
2018-08-28T02:31:29.084Z,17.43
2018-08-28T02:32:29.086Z,17.41
2018-08-28T02:33:29.118Z,17.43
2018-08-28T02:34:29.140Z,17.37
2018-08-28T02:35:29.170Z,17.40
2018-08-28T02:36:29.234Z,17.41
2018-08-28T02:37:29.250Z,17.37
2018-08-28T02:38:29.256Z,17.38
2018-08-28T02:39:29.284Z,17.25
2018-08-28T02:40:29.331Z,17.21
2018-08-28T02:41:29.376Z,17.08
2018-08-28T02:42:29.373Z,17.03
2018-08-28T02:43:29.403Z,16.97
2018-08-28T02:44:29.436Z,16.88
2018-08-28T02:45:29.469Z,16.88
2018-08-28T02:46:29.540Z,16.79
2018-08-28T02:47:29.528Z,16.73
2018-08-28T02:48:29.555Z,16.64
2018-08-28T02:49:29.603Z,16.66
2018-08-28T02:50:29.620Z,16.70
2018-08-28T02:51:29.715Z,16.63
2018-08-28T02:52:29.681Z,16.48
2018-08-28T02:53:29.739Z,16.42
2018-08-28T02:54:29.749Z,16.45
2018-08-28T02:55:29.783Z,16.41
2018-08-28T02:56:29.845Z,16.25
2018-08-28T02:57:29.873Z,16.24
2018-08-28T02:58:29.887Z,16.24
2018-08-28T02:59:29.935Z,16.38
2018-08-28T03:00:30.071Z,16.21
2018-08-28T03:01:29.983Z,16.34
2018-08-28T03:02:30.054Z,16.24
2018-08-28T03:03:30.060Z,16.28
2018-08-28T03:04:30.104Z,16.27
2018-08-28T03:05:30.147Z,16.31
2018-08-28T03:06:30.187Z,16.30
2018-08-28T03:07:30.245Z,16.45
2018-08-28T03:08:30.258Z,16.46
2018-08-28T03:09:30.298Z,16.41
2018-08-28T03:10:30.336Z,16.45
2018-08-28T03:11:30.384Z,16.43
2018-08-28T03:12:30.453Z,16.52
2018-08-28T03:13:30.495Z,16.45
2018-08-28T03:14:30.491Z,16.45
2018-08-28T03:15:30.585Z,16.46
2018-08-28T03:16:30.565Z,16.41
2018-08-28T03:17:30.631Z,16.45
2018-08-28T03:18:30.636Z,16.42
2018-08-28T03:19:30.675Z,16.43
2018-08-28T03:20:30.719Z,16.42
2018-08-28T03:21:30.800Z,16.39
2018-08-28T03:22:30.833Z,16.41
2018-08-28T03:23:30.861Z,16.41
2018-08-28T03:24:30.911Z,16.39
2018-08-28T03:25:30.935Z,16.39
2018-08-28T03:26:30.981Z,16.46
2018-08-28T03:27:31.034Z,16.43
2018-08-28T03:28:31.050Z,16.39
2018-08-28T03:29:31.098Z,16.35
2018-08-28T03:30:31.130Z,16.41
2018-08-28T03:31:31.173Z,16.34
2018-08-28T03:32:31.242Z,16.33
2018-08-28T03:33:31.258Z,16.27
2018-08-28T03:34:31.309Z,16.24
2018-08-28T03:35:31.346Z,16.27
2018-08-28T03:36:31.389Z,16.25
2018-08-28T03:37:31.452Z,16.33
2018-08-28T03:38:31.469Z,16.30
2018-08-28T03:39:31.509Z,16.33
2018-08-28T03:40:31.554Z,16.38
2018-08-28T03:41:31.594Z,16.21
2018-08-28T03:42:31.678Z,16.27
2018-08-28T03:43:31.676Z,16.21
2018-08-28T03:44:31.759Z,16.17
2018-08-28T03:45:31.764Z,16.20
2018-08-28T03:46:31.808Z,16.21
2018-08-28T03:47:31.884Z,16.23
2018-08-28T03:48:31.899Z,16.12
2018-08-28T03:49:31.943Z,16.12
2018-08-28T03:50:32.001Z,16.21
2018-08-28T03:51:32.048Z,16.15
2018-08-28T03:52:32.109Z,16.17
2018-08-28T03:53:32.135Z,16.21
2018-08-28T03:54:32.181Z,16.23
2018-08-28T03:55:32.334Z,16.28
2018-08-28T03:56:32.271Z,16.17
2018-08-28T03:57:32.338Z,16.17
2018-08-28T03:58:32.359Z,16.20
2018-08-28T03:59:32.403Z,16.20
2018-08-28T04:00:32.448Z,16.20
2018-08-28T04:01:32.486Z,16.15
2018-08-28T04:02:32.555Z,16.12
2018-08-28T04:03:32.622Z,16.08
2018-08-28T04:04:32.609Z,16.05
2018-08-28T04:05:32.646Z,16.09
2018-08-28T04:06:32.689Z,16.14
2018-08-28T04:07:32.761Z,16.08
2018-08-28T04:08:32.777Z,16.08
2018-08-28T04:09:32.820Z,16.09
2018-08-28T04:10:32.864Z,16.14
2018-08-28T04:11:32.904Z,16.07
2018-08-28T04:12:32.981Z,16.17
2018-08-28T04:13:33.018Z,16.15
2018-08-28T04:14:33.034Z,16.12
2018-08-28T04:15:33.079Z,16.11
2018-08-28T04:16:33.119Z,16.08
2018-08-28T04:17:33.165Z,16.07
2018-08-28T04:18:33.243Z,16.04
2018-08-28T04:19:33.257Z,15.96
2018-08-28T04:20:33.303Z,16.02
2018-08-28T04:21:33.350Z,16.01
2018-08-28T04:22:33.433Z,16.04
2018-08-28T04:23:33.476Z,15.96
2018-08-28T04:24:33.488Z,15.96
2018-08-28T04:25:33.546Z,15.97
2018-08-28T04:26:33.588Z,16.02
2018-08-28T04:27:33.635Z,16.01
2018-08-28T04:28:33.711Z,15.97
2018-08-28T04:29:33.722Z,16.11
2018-08-28T04:30:33.893Z,16.07
2018-08-28T04:31:33.814Z,16.02
2018-08-28T04:32:33.867Z,16.00
2018-08-28T04:33:33.940Z,16.02
2018-08-28T04:34:33.964Z,16.01
2018-08-28T04:35:34.020Z,16.05
2018-08-28T04:36:34.065Z,16.04
2018-08-28T04:37:34.110Z,16.07
2018-08-28T04:38:34.173Z,16.08
2018-08-28T04:39:34.192Z,16.05
2018-08-28T04:40:34.240Z,16.01
2018-08-28T04:41:34.289Z,16.08
2018-08-28T04:42:34.337Z,16.07
2018-08-28T04:43:34.408Z,16.08
2018-08-28T04:44:34.427Z,16.07
2018-08-28T04:45:34.481Z,16.02
2018-08-28T04:46:34.514Z,16.08
2018-08-28T04:47:34.553Z,16.12
2018-08-28T04:48:34.633Z,16.05
2018-08-28T04:49:34.638Z,16.17
2018-08-28T04:50:34.715Z,16.07
2018-08-28T04:51:34.716Z,16.07
2018-08-28T04:52:34.764Z,16.05
2018-08-28T04:53:34.911Z,16.05
2018-08-28T04:54:34.854Z,16.12
2018-08-28T04:55:34.906Z,16.09
2018-08-28T04:56:34.945Z,16.04
2018-08-28T04:57:35.060Z,16.12
2018-08-28T04:58:35.056Z,16.11
2018-08-28T04:59:35.068Z,16.08
2018-08-28T05:00:35.176Z,16.08
2018-08-28T05:01:35.160Z,16.09
2018-08-28T05:02:35.209Z,16.07
2018-08-28T05:03:35.285Z,16.12
2018-08-28T05:04:35.300Z,16.11
2018-08-28T05:05:35.350Z,16.07
2018-08-28T05:06:35.401Z,16.17
2018-08-28T05:07:35.451Z,16.15
2018-08-28T05:08:35.526Z,16.23
2018-08-28T05:09:35.549Z,16.12
2018-08-28T05:10:35.609Z,16.07
2018-08-28T05:11:35.695Z,16.12
2018-08-28T05:12:35.703Z,16.09
2018-08-28T05:13:35.768Z,16.09
2018-08-28T05:14:35.785Z,16.20
2018-08-28T05:15:35.836Z,16.21
2018-08-28T05:16:35.882Z,16.07
2018-08-28T05:17:35.933Z,16.08
2018-08-28T05:18:36.031Z,16.11
2018-08-28T05:19:36.041Z,16.08
2018-08-28T05:20:36.092Z,16.09
2018-08-28T05:21:36.143Z,16.07
2018-08-28T05:22:36.211Z,16.09
2018-08-28T05:23:36.259Z,16.07
2018-08-28T05:24:36.280Z,16.02
2018-08-28T05:25:36.334Z,16.01
2018-08-28T05:26:36.379Z,16.00
2018-08-28T05:27:36.415Z,15.97
2018-08-28T05:28:36.504Z,15.97
2018-08-28T05:29:36.586Z,15.97
2018-08-28T05:30:36.641Z,16.02
2018-08-28T05:31:36.620Z,16.02
2018-08-28T05:32:36.647Z,15.87
2018-08-28T05:33:36.731Z,16.00
2018-08-28T05:34:36.814Z,15.96
2018-08-28T05:35:36.845Z,15.96
2018-08-28T05:36:36.834Z,16.02
2018-08-28T05:37:36.938Z,16.02
2018-08-28T05:38:36.941Z,16.14
2018-08-28T05:39:37.043Z,16.05
2018-08-28T05:40:37.023Z,16.08
2018-08-28T05:41:37.071Z,16.07
2018-08-28T05:42:37.129Z,16.14
2018-08-28T05:43:37.183Z,16.21
2018-08-28T05:44:37.233Z,16.21
2018-08-28T05:45:37.252Z,16.33
2018-08-28T05:46:37.291Z,16.25
2018-08-28T05:47:37.345Z,16.25
2018-08-28T05:48:37.394Z,16.31
2018-08-28T05:49:37.519Z,16.30
2018-08-28T05:50:37.482Z,16.24
2018-08-28T05:51:37.536Z,16.24
2018-08-28T05:52:37.576Z,16.34
2018-08-28T05:53:37.634Z,16.39
2018-08-28T05:54:37.705Z,16.39
2018-08-28T05:55:37.757Z,16.48
2018-08-28T05:56:37.779Z,16.43
2018-08-28T05:57:37.805Z,16.49
2018-08-28T05:58:37.845Z,16.52
2018-08-28T05:59:37.912Z,16.53
2018-08-28T06:00:37.929Z,16.52
2018-08-28T06:01:37.968Z,16.49
2018-08-28T06:02:38.007Z,16.53
2018-08-28T06:03:38.040Z,16.64
2018-08-28T06:04:38.123Z,16.61
2018-08-28T06:05:38.133Z,16.63
2018-08-28T06:06:38.157Z,16.67
2018-08-28T06:07:38.190Z,16.66
2018-08-28T06:08:38.261Z,16.78
2018-08-28T06:09:38.277Z,16.73
2018-08-28T06:10:38.279Z,16.76
2018-08-28T06:11:38.312Z,16.75
2018-08-28T06:12:38.349Z,16.78
2018-08-28T06:13:38.374Z,16.86
2018-08-28T06:14:38.472Z,16.88
2018-08-28T06:15:38.440Z,16.89
2018-08-28T06:16:38.470Z,16.91
2018-08-28T06:17:38.511Z,16.94
2018-08-28T06:18:38.533Z,16.98
2018-08-28T06:19:38.591Z,17.01
2018-08-28T06:20:38.596Z,16.96
2018-08-28T06:21:38.633Z,17.04
2018-08-28T06:22:38.664Z,17.06
2018-08-28T06:23:38.700Z,17.00
2018-08-28T06:24:38.756Z,17.11
2018-08-28T06:25:38.767Z,17.12
2018-08-28T06:26:38.789Z,17.11
2018-08-28T06:27:38.816Z,17.08
2018-08-28T06:28:38.845Z,17.12
2018-08-28T06:29:38.915Z,17.15
2018-08-28T06:30:38.908Z,17.22
2018-08-28T06:31:38.937Z,17.12
2018-08-28T06:32:38.971Z,17.16
2018-08-28T06:33:38.996Z,17.18
2018-08-28T06:34:39.069Z,17.23
2018-08-28T06:35:39.055Z,17.19
2018-08-28T06:36:39.082Z,17.22
2018-08-28T06:37:39.116Z,17.23
2018-08-28T06:38:39.142Z,17.38
2018-08-28T06:39:39.209Z,17.31
2018-08-28T06:40:39.205Z,17.40
2018-08-28T06:41:39.237Z,17.37
2018-08-28T06:42:39.243Z,17.49
2018-08-28T06:43:39.281Z,17.40
2018-08-28T06:44:39.327Z,17.46
2018-08-28T06:45:39.344Z,17.41
2018-08-28T06:46:39.347Z,17.51
2018-08-28T06:47:39.374Z,17.48
2018-08-28T06:48:39.400Z,17.46
2018-08-28T06:49:39.543Z,17.48
2018-08-28T06:50:39.479Z,17.51
2018-08-28T06:51:39.478Z,17.54
2018-08-28T06:52:39.508Z,17.54
2018-08-28T06:53:39.533Z,17.58
2018-08-28T06:54:39.562Z,17.54
2018-08-28T06:55:39.607Z,17.64
2018-08-28T06:56:39.628Z,17.66
2018-08-28T06:57:39.632Z,17.66
2018-08-28T06:58:39.653Z,17.70
2018-08-28T06:59:39.686Z,17.68
2018-08-28T07:00:39.734Z,17.66
2018-08-28T07:01:39.726Z,17.70
2018-08-28T07:02:39.756Z,17.75
2018-08-28T07:03:39.782Z,17.82
2018-08-28T07:04:39.798Z,17.81
2018-08-28T07:05:39.850Z,17.79
2018-08-28T07:06:39.846Z,17.84
2018-08-28T07:07:39.870Z,17.90
2018-08-28T07:08:39.894Z,17.93
2018-08-28T07:09:39.910Z,18.03
2018-08-28T07:10:39.966Z,17.96
2018-08-28T07:11:39.951Z,17.97
2018-08-28T07:12:39.976Z,18.05
2018-08-28T07:13:39.994Z,18.00
2018-08-28T07:14:40.020Z,18.14
2018-08-28T07:15:40.068Z,18.10
2018-08-28T07:16:40.063Z,18.11
2018-08-28T07:17:40.077Z,18.14
2018-08-28T07:18:40.140Z,18.15
2018-08-28T07:19:40.111Z,18.18
2018-08-28T07:20:40.159Z,18.25
2018-08-28T07:21:40.150Z,18.26
2018-08-28T07:22:40.165Z,18.17
2018-08-28T07:23:40.188Z,18.23
2018-08-28T07:24:40.200Z,18.26
2018-08-28T07:25:40.279Z,18.26
2018-08-28T07:26:40.233Z,18.27
2018-08-28T07:27:40.244Z,18.29
2018-08-28T07:28:40.267Z,18.27
2018-08-28T07:29:40.283Z,18.21
2018-08-28T07:30:40.326Z,18.26
2018-08-28T07:31:40.331Z,18.32
2018-08-28T07:32:40.342Z,18.26
2018-08-28T07:33:40.356Z,18.37
2018-08-28T07:34:40.365Z,18.32
2018-08-28T07:35:40.401Z,18.44
2018-08-28T07:36:40.394Z,18.44
2018-08-28T07:37:40.410Z,18.42
2018-08-28T07:38:40.431Z,18.48
2018-08-28T07:39:40.432Z,18.57
2018-08-28T07:40:40.477Z,18.52
2018-08-28T07:41:40.473Z,18.52
2018-08-28T07:42:40.491Z,18.48
2018-08-28T07:43:40.484Z,18.50
2018-08-28T07:44:40.494Z,18.57
2018-08-28T07:45:40.537Z,18.55
2018-08-28T07:46:40.517Z,18.52
2018-08-28T07:47:40.540Z,18.57
2018-08-28T07:48:40.546Z,18.62
2018-08-28T07:49:40.550Z,18.58
2018-08-28T07:50:40.604Z,18.63
2018-08-28T07:51:40.578Z,18.63
2018-08-28T07:52:40.582Z,18.69
2018-08-28T07:53:40.659Z,18.75
2018-08-28T07:54:40.605Z,18.73
2018-08-28T07:55:40.634Z,18.80
2018-08-28T07:56:40.639Z,18.75
2018-08-28T07:57:40.621Z,18.88
2018-08-28T07:58:40.634Z,18.82
2018-08-28T07:59:40.699Z,18.88
2018-08-28T08:00:40.639Z,18.92
2018-08-28T08:01:40.672Z,18.88
2018-08-28T08:02:40.658Z,18.92
2018-08-28T08:03:40.657Z,18.94
2018-08-28T08:04:40.661Z,18.90
2018-08-28T08:05:40.665Z,18.95
2018-08-28T08:06:40.691Z,19.04
2018-08-28T08:07:40.720Z,19.11
2018-08-28T08:08:40.676Z,19.06
2018-08-28T08:09:40.680Z,18.99
2018-08-28T08:10:40.674Z,19.10
2018-08-28T08:11:40.711Z,19.19
2018-08-28T08:12:40.681Z,19.22
2018-08-28T08:13:40.677Z,19.16
2018-08-28T08:14:40.696Z,19.23
2018-08-28T08:15:40.755Z,19.13
2018-08-28T08:16:40.716Z,19.26
2018-08-28T08:17:40.683Z,19.22
2018-08-28T08:18:40.686Z,19.22
2018-08-28T08:19:40.689Z,19.18
2018-08-28T08:20:40.690Z,19.25
2018-08-28T08:21:40.766Z,19.26
2018-08-28T08:22:40.697Z,19.31
2018-08-28T08:23:40.697Z,19.33
2018-08-28T08:24:40.706Z,19.33
2018-08-28T08:25:40.702Z,19.41
2018-08-28T08:26:40.736Z,19.41
2018-08-28T08:27:40.767Z,19.46
2018-08-28T08:28:40.699Z,19.54
2018-08-28T08:29:40.708Z,19.47
2018-08-28T08:30:40.713Z,19.48
2018-08-28T08:31:40.735Z,19.65
2018-08-28T08:32:40.717Z,19.48
2018-08-28T08:33:40.737Z,19.56
2018-08-28T08:34:40.698Z,19.61
2018-08-28T08:35:40.698Z,19.66
2018-08-28T08:36:40.742Z,19.71
2018-08-28T08:37:40.714Z,19.63
2018-08-28T08:38:40.703Z,19.77
2018-08-28T08:39:40.682Z,19.80
2018-08-28T08:40:40.678Z,19.80
2018-08-28T08:41:40.754Z,19.83
2018-08-28T08:42:40.673Z,19.87
2018-08-28T08:43:40.668Z,19.92
2018-08-28T08:44:40.660Z,19.88
2018-08-28T08:45:40.661Z,19.92
2018-08-28T08:46:40.684Z,19.98
2018-08-28T08:47:40.640Z,19.98
2018-08-28T08:48:40.637Z,19.98
2018-08-28T08:49:40.626Z,20.03
2018-08-28T08:50:40.621Z,20.13
2018-08-28T08:51:40.636Z,20.11
2018-08-28T08:52:40.600Z,20.14
2018-08-28T08:53:40.601Z,20.16
2018-08-28T08:54:40.588Z,20.17
2018-08-28T08:55:40.564Z,20.17
2018-08-28T08:56:40.585Z,20.16
2018-08-28T08:57:40.537Z,20.16
2018-08-28T08:58:40.526Z,20.13
2018-08-28T08:59:40.506Z,20.16
2018-08-28T09:00:40.492Z,20.23
2018-08-28T09:01:40.500Z,20.26
2018-08-28T09:02:40.457Z,20.14
2018-08-28T09:03:40.439Z,20.18
2018-08-28T09:04:40.419Z,20.14
2018-08-28T09:05:40.400Z,20.28
2018-08-28T09:06:40.424Z,20.17
2018-08-28T09:07:40.363Z,20.23
2018-08-28T09:08:40.353Z,20.31
2018-08-28T09:09:40.339Z,20.29
2018-08-28T09:10:40.312Z,20.28
2018-08-28T09:11:40.293Z,20.29
2018-08-28T09:12:40.306Z,20.35
2018-08-28T09:13:40.257Z,20.32
2018-08-28T09:14:40.235Z,20.42
2018-08-28T09:15:40.215Z,20.33
2018-08-28T09:16:40.190Z,20.42
2018-08-28T09:17:40.196Z,20.48
2018-08-28T09:18:40.169Z,20.48
2018-08-28T09:19:40.126Z,20.55
2018-08-28T09:20:40.100Z,20.58
2018-08-28T09:21:40.079Z,20.69
2018-08-28T09:22:40.088Z,20.67
2018-08-28T09:23:40.033Z,20.73
2018-08-28T09:24:40.020Z,20.73
2018-08-28T09:25:39.985Z,20.77
2018-08-28T09:26:39.966Z,20.76
2018-08-28T09:27:39.976Z,20.76
2018-08-28T09:28:39.916Z,20.84
2018-08-28T09:29:39.899Z,20.87
2018-08-28T09:30:39.868Z,20.94
2018-08-28T09:31:39.896Z,20.94
2018-08-28T09:32:39.846Z,20.82
2018-08-28T09:33:39.783Z,20.92
2018-08-28T09:34:39.754Z,20.88
2018-08-28T09:35:39.731Z,20.87
2018-08-28T09:36:39.705Z,20.89
2018-08-28T09:37:39.709Z,20.87
2018-08-28T09:38:39.719Z,20.79
2018-08-28T09:39:39.640Z,20.92
2018-08-28T09:40:39.615Z,20.94
2018-08-28T09:41:39.585Z,20.94
2018-08-28T09:42:39.589Z,20.95
2018-08-28T09:43:39.580Z,20.85
2018-08-28T09:44:39.505Z,20.92
2018-08-28T09:45:39.491Z,20.94
2018-08-28T09:46:39.448Z,20.97
2018-08-28T09:47:39.455Z,20.95
2018-08-28T09:48:39.396Z,21.04
2018-08-28T09:49:39.370Z,20.94
2018-08-28T09:50:39.382Z,20.99
2018-08-28T09:51:39.315Z,20.98
2018-08-28T09:52:39.334Z,21.01
2018-08-28T09:53:39.274Z,21.01
2018-08-28T09:54:39.257Z,21.01
2018-08-28T09:55:39.235Z,21.04
2018-08-28T09:56:39.292Z,21.03
2018-08-28T09:57:39.244Z,20.99
2018-08-28T09:58:39.187Z,21.01
2018-08-28T09:59:39.169Z,21.06
2018-08-28T10:00:39.134Z,21.06
2018-08-28T10:01:39.119Z,21.09
2018-08-28T10:02:39.124Z,21.13
2018-08-28T10:03:39.075Z,21.09
2018-08-28T10:04:39.060Z,21.19
2018-08-28T10:05:39.028Z,21.24
2018-08-28T10:06:39.001Z,21.16
2018-08-28T10:07:39.074Z,21.17
2018-08-28T10:08:38.946Z,21.24
2018-08-28T10:09:38.923Z,21.27
2018-08-28T10:10:38.895Z,21.22
2018-08-28T10:11:38.867Z,21.25
2018-08-28T10:12:38.866Z,21.24
2018-08-28T10:13:38.810Z,21.29
2018-08-28T10:14:38.781Z,21.32
2018-08-28T10:15:38.753Z,21.38
2018-08-28T10:16:38.727Z,21.38
2018-08-28T10:17:38.717Z,21.37
2018-08-28T10:18:38.649Z,21.29
2018-08-28T10:19:38.616Z,21.32
2018-08-28T10:20:38.587Z,21.37
2018-08-28T10:21:38.556Z,21.40
2018-08-28T10:22:38.568Z,21.44
2018-08-28T10:23:38.500Z,21.46
2018-08-28T10:24:38.465Z,21.49
2018-08-28T10:25:38.424Z,21.47
2018-08-28T10:26:38.392Z,21.43
2018-08-28T10:27:38.356Z,21.47
2018-08-28T10:28:38.357Z,21.42
2018-08-28T10:29:38.294Z,21.46
2018-08-28T10:30:38.257Z,21.44
2018-08-28T10:31:38.222Z,21.47
2018-08-28T10:32:38.187Z,21.49
2018-08-28T10:33:38.178Z,21.47
2018-08-28T10:34:38.118Z,21.53
2018-08-28T10:35:38.090Z,21.53
2018-08-28T10:36:38.044Z,21.56
2018-08-28T10:37:38.015Z,21.54
2018-08-28T10:38:38.004Z,21.62
2018-08-28T10:39:37.943Z,21.61
2018-08-28T10:40:37.905Z,21.61
2018-08-28T10:41:37.879Z,21.61
2018-08-28T10:42:37.834Z,21.69
2018-08-28T10:43:37.828Z,21.61
2018-08-28T10:44:37.774Z,21.68
2018-08-28T10:45:37.734Z,21.72
2018-08-28T10:46:37.751Z,21.79
2018-08-28T10:47:37.663Z,21.71
2018-08-28T10:48:37.645Z,21.80
2018-08-28T10:49:37.581Z,21.75
2018-08-28T10:50:37.541Z,21.74
2018-08-28T10:51:37.509Z,21.77
2018-08-28T10:52:37.474Z,21.80
2018-08-28T10:53:37.464Z,21.80
2018-08-28T10:54:37.397Z,21.90
2018-08-28T10:55:37.357Z,21.79
2018-08-28T10:56:37.324Z,21.79
2018-08-28T10:57:37.277Z,21.88
2018-08-28T10:58:37.441Z,21.90
2018-08-28T10:59:37.206Z,21.92
2018-08-28T11:00:37.172Z,21.82
2018-08-28T11:01:37.129Z,21.88
2018-08-28T11:02:37.096Z,21.88
2018-08-28T11:03:37.068Z,21.84
2018-08-28T11:04:37.091Z,21.98
2018-08-28T11:05:36.993Z,21.96
2018-08-28T11:06:36.942Z,21.86
2018-08-28T11:07:36.911Z,22.00
2018-08-28T11:08:36.897Z,21.96
2018-08-28T11:09:36.854Z,22.05
2018-08-28T11:10:36.785Z,22.07
2018-08-28T11:11:36.746Z,22.07
2018-08-28T11:12:36.706Z,22.12
2018-08-28T11:13:36.671Z,22.14
2018-08-28T11:14:36.656Z,22.15
2018-08-28T11:15:36.579Z,22.18
2018-08-28T11:16:36.536Z,22.21
2018-08-28T11:17:36.495Z,22.33
2018-08-28T11:18:36.442Z,22.30
2018-08-28T11:19:36.428Z,22.31
2018-08-28T11:20:36.359Z,22.31
2018-08-28T11:21:36.301Z,22.24
2018-08-28T11:22:36.258Z,22.39
2018-08-28T11:23:36.218Z,22.39
2018-08-28T11:24:36.208Z,22.39
2018-08-28T11:25:36.114Z,22.55
2018-08-28T11:26:36.062Z,22.55
2018-08-28T11:27:36.012Z,22.52
2018-08-28T11:28:35.961Z,22.58
2018-08-28T11:29:35.948Z,22.51
2018-08-28T11:30:35.861Z,22.57
2018-08-28T11:31:35.809Z,22.68
2018-08-28T11:32:35.751Z,22.73
2018-08-28T11:33:35.700Z,22.73
2018-08-28T11:34:35.670Z,22.75
2018-08-28T11:35:35.628Z,22.83
2018-08-28T11:36:35.550Z,22.86
2018-08-28T11:37:35.481Z,22.98
2018-08-28T11:38:35.447Z,23.00
2018-08-28T11:39:35.396Z,23.10
2018-08-28T11:40:35.300Z,23.10
2018-08-28T11:41:35.237Z,23.07
2018-08-28T11:42:35.176Z,23.17
2018-08-28T11:43:35.109Z,23.23
2018-08-28T11:44:35.089Z,23.32
2018-08-28T11:45:34.993Z,23.36
2018-08-28T11:46:34.921Z,23.40
2018-08-28T11:47:34.849Z,23.40
2018-08-28T11:48:34.789Z,23.54
2018-08-28T11:49:34.737Z,23.58
2018-08-28T11:50:34.641Z,23.66
2018-08-28T11:51:34.575Z,23.76
2018-08-28T11:52:34.542Z,23.72
2018-08-28T11:53:34.432Z,23.75
2018-08-28T11:54:34.389Z,23.85
2018-08-28T11:55:34.285Z,23.98
2018-08-28T11:56:34.210Z,23.95
2018-08-28T11:57:34.134Z,24.08
2018-08-28T11:58:34.056Z,24.10
2018-08-28T11:59:34.028Z,24.15
2018-08-28T12:00:33.897Z,24.09
2018-08-28T12:01:33.819Z,24.22
2018-08-28T12:02:33.738Z,24.21
2018-08-28T12:03:33.655Z,24.27
2018-08-28T12:04:33.578Z,24.34
2018-08-28T12:05:33.529Z,24.34
2018-08-28T12:06:33.436Z,24.37
2018-08-28T12:07:33.341Z,24.47
2018-08-28T12:08:33.248Z,24.58
2018-08-28T12:09:33.174Z,24.60
2018-08-28T12:10:33.117Z,24.69
2018-08-28T12:11:33.009Z,24.65
2018-08-28T12:12:32.928Z,24.64
2018-08-28T12:13:32.855Z,24.65
2018-08-28T12:14:32.768Z,24.68
2018-08-28T12:15:32.710Z,24.61
2018-08-28T12:16:32.603Z,24.53
2018-08-28T12:17:32.515Z,24.65
2018-08-28T12:18:32.445Z,24.71
2018-08-28T12:19:32.400Z,24.68
2018-08-28T12:20:32.304Z,24.73
2018-08-28T12:21:32.175Z,24.80
2018-08-28T12:22:32.089Z,24.87
2018-08-28T12:23:32.006Z,24.91
2018-08-28T12:24:31.918Z,24.96
2018-08-28T12:25:31.874Z,25.05
2018-08-28T12:26:31.796Z,25.10
2018-08-28T12:27:31.642Z,25.09
2018-08-28T12:28:31.550Z,25.15
2018-08-28T12:29:31.484Z,25.32
2018-08-28T12:30:31.395Z,25.32
2018-08-28T12:31:31.263Z,25.36
2018-08-28T12:32:31.168Z,25.39
2018-08-28T12:33:31.071Z,25.43
2018-08-28T12:34:30.967Z,25.28
2018-08-28T12:35:30.894Z,25.32
2018-08-28T12:36:30.770Z,25.32
2018-08-28T12:37:30.660Z,25.20
2018-08-28T12:38:30.557Z,25.08
2018-08-28T12:39:30.459Z,25.00
2018-08-28T12:40:30.386Z,24.98
2018-08-28T12:41:30.265Z,24.80
2018-08-28T12:42:30.182Z,24.78
2018-08-28T12:43:30.077Z,24.85
2018-08-28T12:44:29.981Z,24.93
2018-08-28T12:45:29.918Z,24.91
2018-08-28T12:46:29.797Z,25.02
2018-08-28T12:47:29.706Z,25.09
2018-08-28T12:48:29.623Z,25.05
2018-08-28T12:49:29.517Z,25.20
2018-08-28T12:50:29.446Z,25.36
2018-08-28T12:51:29.453Z,25.39
2018-08-28T12:52:29.223Z,25.52